Time;durP1;ratioP1;P1;durP2;ratioP2;P2;SDS_P1;SDS_P2;PMS_P1;PMS_P2;Temp;Humidity;BMP_temperature;BMP_pressure;BME280_temperature;BME280_humidity;BME280_pressure;Samples;Min_cycle;Max_cycle;Signal;HPM_P1;HPM_P2
2022/04/16 00:00:15;;;;;;;21.47;16.30;;;;;;;6.48;85.98;102953.72;5061944;28;20056;-89
2022/04/16 00:02:40;;;;;;;22.83;16.97;;;;;;;6.44;85.96;102948.75;5062068;28;20063;-89
2022/04/16 00:05:07;;;;;;;20.53;16.57;;;;;;;6.43;86.36;102961.34;5061554;28;20449;-89
2022/04/16 00:07:33;;;;;;;22.37;17.33;;;;;;;6.34;86.38;102946.00;5061677;28;20044;-89
2022/04/16 00:09:58;;;;;;;21.93;16.57;;;;;;;6.34;86.39;102946.84;5061730;28;20656;-89
2022/04/16 00:12:24;;;;;;;22.00;17.10;;;;;;;6.26;86.36;102938.56;5062797;28;20055;-88
2022/04/16 00:14:49;;;;;;;22.73;17.33;;;;;;;6.29;86.55;102949.06;5061026;28;20416;-88
2022/04/16 00:17:16;;;;;;;22.27;17.63;;;;;;;6.25;86.97;102951.16;5062420;28;20037;-89
2022/04/16 00:19:43;;;;;;;22.77;17.83;;;;;;;6.23;87.04;102950.44;5062043;28;20395;-89
2022/04/16 00:22:12;;;;;;;24.83;18.67;;;;;;;6.24;87.28;102954.84;5063193;28;20067;-89
2022/04/16 00:24:38;;;;;;;22.63;17.40;;;;;;;6.11;87.38;102940.75;5092292;27;20056;-89
2022/04/16 00:27:04;;;;;;;25.17;17.73;;;;;;;6.17;87.42;102959.03;5094237;27;20037;-89
2022/04/16 00:29:30;;;;;;;22.03;17.40;;;;;;;6.14;87.37;102951.22;5060671;28;20438;-88
2022/04/16 00:31:56;;;;;;;22.03;17.90;;;;;;;6.12;87.37;102961.28;5060940;28;20281;-88
2022/04/16 00:34:21;;;;;;;25.50;18.23;;;;;;;6.01;87.60;102947.88;5061469;28;20140;-89
2022/04/16 00:36:47;;;;;;;23.03;19.23;;;;;;;6.00;87.99;102948.88;5060964;28;20048;-88
2022/04/16 00:39:13;;;;;;;24.13;18.57;;;;;;;6.00;87.94;102956.94;5093838;27;20071;-89
2022/04/16 00:41:39;;;;;;;25.73;19.90;;;;;;;5.89;88.57;102945.22;5061197;28;20064;-89
2022/04/16 00:44:06;;;;;;;24.17;18.87;;;;;;;5.96;88.72;102952.78;5060858;28;20522;-88
2022/04/16 00:46:31;;;;;;;23.93;19.23;;;;;;;5.78;88.51;102934.50;5059422;28;20644;-89
2022/04/16 00:48:57;;;;;;;25.00;19.27;;;;;;;5.95;88.91;102959.13;5061201;28;20037;-89
2022/04/16 00:51:23;;;;;;;26.87;19.93;;;;;;;5.90;88.92;102963.06;5060976;28;20519;-89
2022/04/16 00:53:49;;;;;;;26.17;20.70;;;;;;;5.91;89.10;102959.38;5060905;28;20036;-90
2022/04/16 00:56:14;;;;;;;26.50;21.27;;;;;;;5.85;89.34;102954.53;5060787;28;20055;-89
2022/04/16 00:58:40;;;;;;;26.70;21.17;;;;;;;5.89;89.56;102958.66;5093296;27;20047;-88
2022/04/16 01:01:06;;;;;;;26.43;20.63;;;;;;;5.86;89.51;102953.56;5060915;28;20554;-89
2022/04/16 01:03:31;;;;;;;26.37;21.63;;;;;;;5.89;89.67;102961.34;5059091;28;20059;-90
2022/04/16 01:05:58;;;;;;;28.13;20.57;;;;;;;5.88;89.45;102956.94;5075252;28;20040;-88
2022/04/16 01:08:23;;;;;;;27.53;22.03;;;;;;;5.88;89.70;102954.25;5075716;28;20498;-88
2022/04/16 01:10:49;;;;;;;27.57;22.40;;;;;;;5.88;90.14;102953.41;5057907;28;20040;-89
2022/04/16 01:13:15;;;;;;;28.50;21.90;;;;;;;5.90;90.32;102949.63;5061783;28;20870;-89
2022/04/16 01:15:41;;;;;;;27.23;21.00;;;;;;;5.82;90.11;102946.72;5059173;28;20033;-89
2022/04/16 01:18:07;;;;;;;28.37;22.10;;;;;;;5.84;89.96;102958.19;5061133;28;20044;-89
2022/04/16 01:20:35;;;;;;;30.87;23.20;;;;;;;5.80;90.28;102953.22;5060074;28;20042;-91
2022/04/16 01:23:01;;;;;;;29.13;22.13;;;;;;;5.80;90.41;102953.22;5059768;28;20028;-89
2022/04/16 01:25:27;;;;;;;30.93;23.00;;;;;;;5.78;90.21;102955.16;5059489;28;20085;-89
2022/04/16 01:27:53;;;;;;;29.67;22.57;;;;;;;5.78;89.96;102956.03;5060441;28;20407;-88
2022/04/16 01:30:21;;;;;;;28.63;23.47;;;;;;;5.79;90.06;102965.78;5059678;28;20121;-87
2022/04/16 01:32:48;;;;;;;28.00;21.93;;;;;;;5.79;90.02;102973.84;5059440;28;20475;-89
2022/04/16 01:35:15;;;;;;;27.07;21.47;;;;;;;5.75;90.14;102973.28;5059995;28;20043;-89
2022/04/16 01:37:40;;;;;;;28.37;23.27;;;;;;;5.71;90.46;102965.56;5059190;28;20062;-89
2022/04/16 01:40:08;;;;;;;29.87;22.80;;;;;;;5.69;90.73;102972.94;5060057;28;20048;-88
2022/04/16 01:42:35;;;;;;;29.67;23.87;;;;;;;5.72;91.26;102978.88;5058356;28;20036;-89
2022/04/16 01:45:05;;;;;;;29.87;23.17;;;;;;;5.65;91.25;102969.63;5059030;28;20599;-89
2022/04/16 01:47:34;;;;;;;28.67;23.00;;;;;;;5.69;91.52;102978.31;5058732;28;20081;-90
2022/04/16 01:50:00;;;;;;;29.33;23.40;;;;;;;5.69;91.55;102978.31;5059544;28;20028;-87
2022/04/16 01:52:26;;;;;;;30.43;23.83;;;;;;;5.63;91.58;102976.13;5060689;28;20032;-89
2022/04/16 01:54:52;;;;;;;31.47;24.50;;;;;;;5.61;92.21;102970.88;5061070;28;20036;-87
2022/04/16 01:57:18;;;;;;;32.07;23.90;;;;;;;5.64;91.94;102975.13;5045014;28;20399;-89
2022/04/16 01:59:47;;;;;;;31.83;24.33;;;;;;;5.56;92.40;102968.56;5059497;28;20033;-89
2022/04/16 02:02:13;;;;;;;30.63;24.93;;;;;;;5.60;92.27;102973.69;5060315;28;20036;-90
2022/04/16 02:04:39;;;;;;;30.50;23.90;;;;;;;5.56;92.30;102965.00;5060252;28;20392;-88
2022/04/16 02:07:04;;;;;;;30.67;24.57;;;;;;;5.63;92.74;102978.81;5060121;28;20068;-88
2022/04/16 02:09:30;;;;;;;31.17;25.20;;;;;;;5.56;92.96;102976.63;5059665;28;20102;-87
2022/04/16 02:11:55;;;;;;;31.57;23.93;;;;;;;5.60;93.04;102974.53;5060461;28;20039;-88
2022/04/16 02:14:23;;;;;;;32.90;24.73;;;;;;;5.44;92.75;102949.88;5059431;28;20043;-91
2022/04/16 02:16:49;;;;;;;30.57;24.57;;;;;;;5.56;93.18;102963.19;5060086;28;20496;-89
2022/04/16 02:19:14;;;;;;;31.47;25.27;;;;;;;5.60;93.32;102969.16;5060731;28;20032;-87
2022/04/16 02:21:44;;;;;;;32.87;24.40;;;;;;;5.55;92.79;102966.84;5059729;28;20484;-89
2022/04/16 02:24:13;;;;;;;31.87;24.63;;;;;;;5.56;93.21;102970.38;5061524;28;20040;-89
2022/04/16 02:26:41;;;;;;;33.33;23.67;;;;;;;5.46;93.06;102956.84;5060530;28;20460;-88
2022/04/16 02:29:08;;;;;;;33.97;25.43;;;;;;;5.52;93.32;102969.81;5059797;28;20040;-89
2022/04/16 02:31:34;;;;;;;32.07;25.07;;;;;;;5.50;93.59;102969.06;5059537;28;20016;-90
2022/04/16 02:34:00;;;;;;;31.43;24.93;;;;;;;5.48;93.78;102973.72;5060517;28;20044;-88
2022/04/16 02:36:25;;;;;;;31.57;24.17;;;;;;;5.47;93.46;102974.69;5059785;28;20614;-89
2022/04/16 02:38:54;;;;;;;32.33;24.93;;;;;;;5.47;93.81;102974.69;5061664;28;20407;-89
2022/04/16 02:41:22;;;;;;;31.90;25.00;;;;;;;5.49;93.71;102979.94;5061176;28;20636;-91
2022/04/16 02:43:48;;;;;;;31.10;25.13;;;;;;;5.44;93.60;102980.34;5063625;28;20151;-89
2022/04/16 02:48:58;;;;;;;33.72;25.60;;;;;;;5.47;93.72;102984.59;5077279;28;20102;-88
2022/04/16 02:51:24;;;;;;;32.20;25.37;;;;;;;5.37;93.58;102979.09;5063103;28;20472;-90
2022/04/16 02:53:50;;;;;;;31.33;25.47;;;;;;;5.40;93.86;102992.31;5062363;28;20123;-89
2022/04/16 02:56:15;;;;;;;33.73;25.47;;;;;;;5.38;93.85;102996.94;5062707;28;20074;-88
2022/04/16 02:58:41;;;;;;;33.00;25.70;;;;;;;5.38;94.08;102999.63;5063022;28;20721;-88
2022/04/16 03:01:07;;;;;;;31.13;26.00;;;;;;;5.30;93.73;102996.72;5063631;28;20062;-89
2022/04/16 03:03:32;;;;;;;33.07;25.63;;;;;;;5.29;94.26;102992.31;5063912;28;20040;-89
2022/04/16 03:05:58;;;;;;;34.07;25.87;;;;;;;5.33;94.12;102997.34;5063032;28;20056;-89
2022/04/16 03:08:24;;;;;;;33.17;25.40;;;;;;;5.30;94.27;103005.63;5063578;28;21005;-87
2022/04/16 03:10:52;;;;;;;34.50;25.50;;;;;;;5.21;94.31;102996.47;5095921;27;20369;-91
2022/04/16 03:13:18;;;;;;;35.33;26.43;;;;;;;5.22;94.23;102998.19;5063873;28;21386;-88
2022/04/16 03:18:27;;;;;;;34.97;26.63;;;;;;;5.15;94.52;102994.28;5062701;28;20047;-90
2022/04/16 03:20:53;;;;;;;33.47;26.33;;;;;;;5.17;94.50;102991.50;5095617;27;20033;-88
2022/04/16 03:23:19;;;;;;;33.83;26.07;;;;;;;5.13;94.48;102992.72;5062674;28;20480;-88
2022/04/16 03:25:44;;;;;;;34.13;26.93;;;;;;;5.05;95.10;102987.94;5060981;28;20306;-89
2022/04/16 03:28:10;;;;;;;33.13;26.47;;;;;;;5.08;95.06;102993.06;5061417;28;20032;-88
2022/04/16 03:30:36;;;;;;;32.93;26.40;;;;;;;4.95;94.84;102968.16;5062090;28;20033;-89
2022/04/16 03:33:02;;;;;;;35.13;26.57;;;;;;;4.97;94.99;102980.50;5077309;28;20037;-89
2022/04/16 03:35:27;;;;;;;35.47;27.00;;;;;;;5.03;95.31;102988.06;5060527;28;20036;-89
2022/04/16 03:37:54;;;;;;;37.07;28.20;;;;;;;4.99;95.25;102986.59;5061385;28;20032;-89
2022/04/16 03:40:20;;;;;;;36.80;28.10;;;;;;;4.94;95.35;102977.19;5061261;28;20052;-89
2022/04/16 03:42:50;;;;;;;37.93;27.27;;;;;;;4.94;95.37;102975.38;5062846;28;20079;-89
2022/04/16 03:45:24;;;;;;;36.33;28.03;;;;;;;4.98;95.86;102984.03;5061384;28;20063;-89
2022/04/16 03:47:50;;;;;;;37.50;29.13;;;;;;;5.15;95.69;103004.19;5061230;28;20032;-89
2022/04/16 03:50:18;;;;;;;37.53;29.07;;;;;;;4.97;95.69;102985.03;5062107;28;20041;-90
2022/04/16 03:52:47;;;;;;;37.83;27.67;;;;;;;4.93;95.51;102980.88;5062718;28;20158;-88
2022/04/16 04:00:43;;;;;;;37.00;26.88;;;;;;;5.07;95.52;103015.53;5062232;28;20088;-87
2022/04/16 04:03:10;;;;;;;36.27;27.87;;;;;;;5.02;95.42;103013.22;5060842;28;20051;-90
2022/04/16 04:05:37;;;;;;;36.80;27.87;;;;;;;4.99;95.27;103012.59;5062103;28;20058;-90
2022/04/16 04:08:06;;;;;;;38.03;28.43;;;;;;;4.98;95.52;103016.28;5060613;28;20365;-88
2022/04/16 04:10:32;;;;;;;37.87;29.00;;;;;;;4.98;95.50;103014.44;5061526;28;20032;-89
2022/04/16 04:12:58;;;;;;;35.27;28.07;;;;;;;4.93;95.40;103015.78;5061425;28;20042;-88
2022/04/16 04:15:29;;;;;;;38.20;28.60;;;;;;;4.92;95.51;103019.44;5060863;28;20044;-89
2022/04/16 04:18:03;;;;;;;38.00;28.37;;;;;;;4.87;95.66;103014.44;5061159;28;20040;-88
2022/04/16 04:20:29;;;;;;;39.20;27.55;;;;;;;4.85;95.44;103022.59;5062106;28;20042;-88
2022/04/16 04:22:55;;;;;;;39.60;29.67;;;;;;;4.83;95.74;103018.34;5062529;28;20040;-89
2022/04/16 04:25:21;;;;;;;39.73;28.90;;;;;;;4.76;96.10;103017.09;5061514;28;20394;-88
2022/04/16 04:27:46;;;;;;;38.60;28.97;;;;;;;4.77;96.23;103025.03;5061667;28;20037;-88
2022/04/16 04:30:12;;;;;;;37.80;28.93;;;;;;;4.79;96.22;103031.16;5061813;28;20720;-89
2022/04/16 04:32:38;;;;;;;37.83;29.30;;;;;;;4.76;96.31;103035.91;5060701;28;20044;-89
2022/04/16 04:35:05;;;;;;;38.73;29.77;;;;;;;4.74;96.32;103025.28;5062230;28;20036;-88
2022/04/16 04:37:30;;;;;;;41.70;30.93;;;;;;;4.84;96.98;103036.16;5061013;28;20040;-89
2022/04/16 04:39:56;;;;;;;40.63;31.00;;;;;;;4.81;97.27;103039.94;5061208;28;20070;-89
2022/04/16 04:42:42;;;;;;;42.67;32.83;;;;;;;4.85;97.69;103040.56;5060551;28;20038;-89
2022/04/16 04:45:09;;;;;;;42.40;30.77;;;;;;;4.89;97.81;103047.41;5061007;28;20111;-89
2022/04/16 04:47:35;;;;;;;41.77;32.20;;;;;;;4.81;98.15;103034.56;5061731;28;20368;-89
2022/04/16 04:50:00;;;;;;;43.90;32.13;;;;;;;4.86;97.61;103042.28;5061143;28;20036;-91
2022/04/16 04:52:27;;;;;;;42.87;33.40;;;;;;;4.95;98.11;103059.50;5060610;28;20045;-89
2022/04/16 04:54:59;;;;;;;41.87;31.60;;;;;;;4.88;98.32;103043.00;5061116;28;20075;-89
2022/04/16 04:57:25;;;;;;;44.00;32.90;;;;;;;4.94;98.21;103047.91;5059485;28;21358;-89
2022/04/16 04:59:51;;;;;;;44.30;32.57;;;;;;;4.95;98.23;103056.81;5060966;28;20517;-89
2022/04/16 05:02:16;;;;;;;43.47;32.70;;;;;;;5.04;98.39;103064.16;5059194;28;20080;-88
2022/04/16 05:04:42;;;;;;;43.10;32.30;;;;;;;4.98;98.35;103053.91;5061593;28;20090;-89
2022/04/16 05:07:08;;;;;;;44.00;33.17;;;;;;;5.06;98.10;103068.44;5060928;28;20037;-89
2022/04/16 05:09:34;;;;;;;42.00;32.03;;;;;;;5.00;98.31;103058.16;5061817;28;20063;-89
2022/04/16 05:11:59;;;;;;;41.60;33.10;;;;;;;5.03;98.25;103057.06;5061028;28;20039;-89
2022/04/16 05:14:25;;;;;;;45.07;34.63;;;;;;;5.14;98.83;103078.59;5060966;28;20724;-90
2022/04/16 05:16:51;;;;;;;45.00;35.00;;;;;;;5.16;98.97;103079.31;5059976;28;20037;-90
2022/04/16 05:19:16;;;;;;;45.50;34.10;;;;;;;5.10;98.64;103060.13;5058936;28;20044;-90
2022/04/16 05:21:42;;;;;;;46.20;35.03;;;;;;;5.23;98.75;103085.06;5059978;28;20043;-89
2022/04/16 05:24:07;;;;;;;45.20;34.47;;;;;;;5.28;98.57;103082.03;5092301;27;20469;-89
2022/04/16 05:26:33;;;;;;;46.00;34.80;;;;;;;5.25;98.44;103075.06;5060482;28;20047;-91
2022/04/16 05:28:59;;;;;;;44.20;35.07;;;;;;;5.35;98.50;103077.84;5092322;27;20044;-90
2022/04/16 05:31:26;;;;;;;44.10;35.57;;;;;;;5.43;98.57;103072.72;5060048;28;20035;-90
2022/04/16 05:36:37;;;;;;;43.00;34.37;;;;;;;5.53;97.68;103081.75;5060447;28;20125;-89
2022/04/16 05:39:02;;;;;;;44.40;34.60;;;;;;;5.55;97.82;103084.34;5059939;28;20476;-89
2022/04/16 05:41:28;;;;;;;45.67;35.13;;;;;;;5.65;97.92;103089.81;5061043;28;20071;-90
2022/04/16 05:43:54;;;;;;;46.43;35.80;;;;;;;5.66;97.75;103083.47;5060876;28;20033;-92
2022/04/16 05:46:19;;;;;;;45.43;35.43;;;;;;;5.74;97.66;103083.69;5060674;28;20576;-92
2022/04/16 05:48:44;;;;;;;43.27;34.57;;;;;;;6.32;97.16;103078.03;5061060;28;20032;-90
2022/04/16 05:51:11;;;;;;;39.63;32.27;;;;;;;7.42;91.17;103092.91;5060874;28;20043;-91
2022/04/16 05:53:37;;;;;;;36.73;30.03;;;;;;;7.97;86.47;103081.72;5042339;28;20391;-90
2022/04/16 05:56:03;;;;;;;36.17;28.77;;;;;;;8.26;83.87;103089.84;5059976;28;20040;-91
2022/04/16 05:58:28;;;;;;;34.90;28.53;;;;;;;8.37;83.29;103102.34;5060838;28;20147;-89
2022/04/16 06:00:54;;;;;;;32.27;27.10;;;;;;;9.00;81.48;103094.78;5057950;28;20131;-88
2022/04/16 06:03:20;;;;;;;35.83;28.37;;;;;;;8.95;79.82;103076.31;5059898;28;20479;-92
2022/04/16 06:05:46;;;;;;;34.03;27.53;;;;;;;9.10;79.59;103112.69;5060182;28;20131;-89
2022/04/16 06:08:11;;;;;;;34.23;28.00;;;;;;;9.03;80.22;103108.88;5059624;28;20506;-91
2022/04/16 06:10:37;;;;;;;33.17;27.20;;;;;;;9.09;79.84;103120.97;5061023;28;20040;-90
2022/04/16 06:13:03;;;;;;;33.03;27.40;;;;;;;8.88;80.57;103115.72;5096484;27;20037;-91
2022/04/16 06:15:29;;;;;;;33.07;28.13;;;;;;;8.88;80.70;103129.25;5063327;28;20100;-88
2022/04/16 06:17:54;;;;;;;32.83;26.83;;;;;;;8.86;80.94;103110.47;5045046;28;20040;-89
2022/04/16 06:20:19;;;;;;;34.50;28.70;;;;;;;8.65;81.60;103096.25;5064938;28;20036;-91
2022/04/16 06:22:45;;;;;;;33.43;27.10;;;;;;;9.06;80.09;103142.91;5064514;28;20442;-90
2022/04/16 06:25:10;;;;;;;31.30;27.90;;;;;;;8.43;82.02;103122.53;5064045;28;20163;-91
2022/04/16 06:27:40;;;;;;;33.97;28.27;;;;;;;8.34;83.61;103123.41;5070584;28;20030;-91
2022/04/16 06:30:10;;;;;;;35.77;29.23;;;;;;;8.45;84.36;103128.72;5089641;28;20784;-87
2022/04/16 06:32:36;;;;;;;36.47;29.77;;;;;;;8.45;85.15;103137.66;5096547;27;20039;-90
2022/04/16 06:35:05;;;;;;;36.30;30.07;;;;;;;8.31;85.58;103145.28;5065261;28;20033;-88
2022/04/16 06:37:31;;;;;;;35.03;30.03;;;;;;;8.06;86.18;103137.56;5065213;28;20032;-86
2022/04/16 06:39:57;;;;;;;36.40;31.00;;;;;;;7.99;86.69;103132.88;5064526;28;20627;-91
2022/04/16 06:42:22;;;;;;;36.73;31.97;;;;;;;8.02;86.52;103127.19;5064847;28;20032;-92
2022/04/16 06:44:48;;;;;;;38.37;32.00;;;;;;;8.09;87.86;103129.22;5063830;28;20134;-91
2022/04/16 06:47:13;;;;;;;37.67;31.40;;;;;;;8.13;87.38;103129.75;5064730;28;20424;-91
2022/04/16 06:49:38;;;;;;;38.33;31.50;;;;;;;8.39;87.41;103140.03;5063490;28;20048;-91
2022/04/16 06:52:04;;;;;;;38.00;30.57;;;;;;;8.54;85.97;103144.06;5097490;27;20050;-93
2022/04/16 06:54:30;;;;;;;38.67;30.17;;;;;;;8.49;85.67;103140.94;5097072;27;20033;-92
2022/04/16 06:56:55;;;;;;;37.67;30.87;;;;;;;8.49;85.88;103143.63;5064986;28;20024;-94
2022/04/16 06:59:20;;;;;;;36.77;30.80;;;;;;;8.46;85.82;103127.72;5075582;28;20063;-89
2022/04/16 07:01:46;;;;;;;36.67;30.53;;;;;;;8.54;85.31;103138.66;5074762;28;20124;-89
2022/04/16 07:04:11;;;;;;;35.63;31.03;;;;;;;8.53;85.47;103142.34;5072578;28;20056;-91
2022/04/16 07:06:39;;;;;;;35.80;30.13;;;;;;;8.52;86.48;103124.44;5101121;28;20110;-90
2022/04/16 07:09:04;;;;;;;38.43;30.03;;;;;;;8.79;86.32;103126.41;5040784;28;20063;-87
2022/04/16 07:11:30;;;;;;;35.70;29.50;;;;;;;8.73;84.01;103126.13;5083038;28;20032;-91
2022/04/16 07:13:55;;;;;;;38.83;29.87;;;;;;;8.86;85.49;103142.91;5062182;28;20052;-90
2022/04/16 07:16:20;;;;;;;35.80;28.70;;;;;;;8.85;84.16;103122.28;5064695;28;20044;-91
2022/04/16 07:18:46;;;;;;;35.07;29.70;;;;;;;9.00;83.87;103146.16;5064277;28;20593;-89
2022/04/16 07:21:11;;;;;;;35.13;28.23;;;;;;;8.95;83.85;103124.97;5063735;28;20476;-91
2022/04/16 07:23:37;;;;;;;36.27;28.30;;;;;;;9.18;84.15;103157.97;5063307;28;20684;-89
2022/04/16 07:26:02;;;;;;;33.83;29.43;;;;;;;9.04;83.76;103155.69;5062311;28;20044;-91
2022/04/16 07:28:27;;;;;;;34.50;28.63;;;;;;;8.78;84.28;103123.84;5063799;28;20044;-89
2022/04/16 07:30:53;;;;;;;35.80;27.60;;;;;;;9.14;85.24;103140.31;5063952;28;21413;-91
2022/04/16 07:33:19;;;;;;;33.63;27.63;;;;;;;9.28;84.10;103147.94;5064113;28;20059;-91
2022/04/16 07:35:44;;;;;;;32.57;27.97;;;;;;;9.15;82.07;103142.00;5063661;28;20040;-89
2022/04/16 07:38:11;;;;;;;32.73;27.30;;;;;;;9.01;83.69;103126.25;5063221;28;20033;-90
2022/04/16 07:40:36;;;;;;;31.57;26.10;;;;;;;9.28;83.25;103137.13;5063388;28;20040;-91
2022/04/16 07:43:02;;;;;;;31.20;26.43;;;;;;;9.22;82.30;103139.56;5045425;28;20043;-92
2022/04/16 07:45:28;;;;;;;31.87;25.67;;;;;;;9.39;82.00;103144.22;5080562;28;20031;-91
2022/04/16 07:47:53;;;;;;;31.53;26.93;;;;;;;9.36;82.20;103138.25;5095049;27;20043;-90
2022/04/16 07:50:19;;;;;;;32.47;26.83;;;;;;;9.18;81.50;103141.72;5063978;28;20028;-91
2022/04/16 07:52:45;;;;;;;31.00;26.40;;;;;;;9.16;82.04;103162.66;5064594;28;20036;-93
2022/04/16 07:55:11;;;;;;;31.50;26.73;;;;;;;9.35;83.34;103147.38;5064085;28;20055;-92
2022/04/16 07:57:36;;;;;;;32.87;26.97;;;;;;;9.55;83.00;103154.41;5063890;28;20036;-93
2022/04/16 08:00:04;;;;;;;30.40;24.63;;;;;;;9.51;81.75;103149.47;5063881;28;20157;-87
2022/04/16 08:02:29;;;;;;;31.77;25.47;;;;;;;9.71;82.02;103161.91;5063966;28;20032;-90
2022/04/16 08:04:55;;;;;;;29.17;24.53;;;;;;;9.65;80.20;103159.78;5095144;27;20048;-91
2022/04/16 08:07:20;;;;;;;30.80;23.73;;;;;;;9.81;80.87;103167.28;5062665;28;20052;-89
2022/04/16 08:09:46;;;;;;;29.13;25.83;;;;;;;9.98;81.82;103162.91;5063224;28;20127;-91
2022/04/16 08:12:11;;;;;;;28.53;24.70;;;;;;;9.72;79.30;103173.59;5063253;28;20028;-93
2022/04/16 08:14:36;;;;;;;28.90;24.43;;;;;;;9.76;79.32;103165.03;5062344;28;20028;-89
2022/04/16 08:17:02;;;;;;;28.30;24.33;;;;;;;9.96;79.79;103173.06;5095569;27;20381;-92
2022/04/16 08:19:27;;;;;;;28.67;23.43;;;;;;;9.87;80.04;103149.56;5062863;28;20045;-92
2022/04/16 08:21:53;;;;;;;29.30;22.67;;;;;;;9.94;79.46;103158.78;5063045;28;20124;-92
2022/04/16 08:24:38;;;;;;;30.20;24.13;;;;;;;10.11;79.14;103173.41;5063171;28;20056;-91
2022/04/16 08:27:04;;;;;;;;;;;;;;;10.25;78.12;103167.47;5064212;28;20119;-91
2022/04/16 08:29:29;;;;;;;28.17;24.00;;;;;;;10.19;78.50;103173.47;5063245;28;19924;-90
2022/04/16 08:31:54;;;;;;;30.47;23.43;;;;;;;10.34;79.56;103165.69;5063159;28;20112;-90
2022/04/16 08:34:20;;;;;;;28.97;22.73;;;;;;;10.45;77.65;103162.78;5062880;28;20119;-89
2022/04/16 08:36:45;;;;;;;30.93;23.67;;;;;;;10.53;78.00;103172.03;5062380;28;20044;-90
2022/04/16 08:39:11;;;;;;;28.37;22.07;;;;;;;10.56;76.62;103163.56;5062564;28;20052;-89
2022/04/16 08:41:37;;;;;;;28.70;22.77;;;;;;;10.67;77.29;103165.19;5046049;28;20040;-90
2022/04/16 08:44:03;;;;;;;28.70;22.67;;;;;;;11.00;78.46;103170.88;5062405;28;20055;-90
2022/04/16 08:46:32;;;;;;;26.47;21.50;;;;;;;10.94;76.26;103166.94;5079417;28;20074;-89
2022/04/16 08:48:58;;;;;;;25.93;21.57;;;;;;;10.93;74.79;103170.66;5073677;28;20025;-89
2022/04/16 08:51:26;;;;;;;26.80;20.20;;;;;;;11.05;75.57;103168.56;5073529;28;20021;-90
2022/04/16 08:53:51;;;;;;;23.60;19.80;;;;;;;10.85;73.05;103173.31;5073803;28;20131;-89
2022/04/16 08:56:17;;;;;;;24.27;19.00;;;;;;;11.11;74.74;103171.50;5074696;28;20032;-88
2022/04/16 08:58:43;;;;;;;22.73;18.17;;;;;;;11.07;73.51;103150.25;5073874;28;20032;-90
2022/04/16 09:01:09;;;;;;;24.00;19.40;;;;;;;11.08;72.55;103151.97;5074205;28;20029;-87
2022/04/16 09:03:36;;;;;;;23.70;19.07;;;;;;;11.00;72.72;103154.59;5074826;28;20029;-89
2022/04/16 09:06:05;;;;;;;23.03;17.87;;;;;;;11.14;72.14;103159.47;5073411;28;20024;-88
2022/04/16 09:08:32;;;;;;;24.03;17.70;;;;;;;11.08;71.47;103160.97;5074390;28;20116;-89
2022/04/16 09:11:11;;;;;;;24.77;18.90;;;;;;;11.26;72.67;103150.06;5074024;28;20472;-89
2022/04/16 09:13:49;;;;;;;23.30;17.97;;;;;;;11.52;73.05;103172.75;5071830;28;20032;-86
2022/04/16 09:16:15;;;;;;;23.83;17.40;;;;;;;11.60;72.50;103151.94;5069985;28;20743;-87
2022/04/16 09:18:54;;;;;;;23.60;17.60;;;;;;;11.86;72.86;103161.03;5106841;28;20025;-88
2022/04/16 09:21:24;;;;;;;20.50;16.20;;;;;;;11.79;69.55;103152.69;5074886;28;20025;-91
2022/04/16 09:23:52;;;;;;;21.17;16.37;;;;;;;11.80;69.76;103143.53;5070792;28;20536;-87
2022/04/16 09:26:26;;;;;;;20.60;16.90;;;;;;;11.77;68.96;103152.00;5073056;28;20429;-90
2022/04/16 09:28:51;;;;;;;21.53;16.03;;;;;;;11.58;68.35;103140.38;5071678;28;20028;-89
2022/04/16 09:31:17;;;;;;;20.37;15.70;;;;;;;11.90;68.98;103154.25;5080622;28;20032;-90
2022/04/16 09:33:45;;;;;;;22.10;16.57;;;;;;;11.94;69.26;103170.13;5093265;28;20031;-91
2022/04/16 09:36:10;;;;;;;20.50;15.47;;;;;;;11.79;67.63;103147.25;5073240;28;20032;-90
2022/04/16 09:38:37;;;;;;;19.83;14.73;;;;;;;11.91;67.75;103148.69;5074577;28;20494;-91
2022/04/16 09:41:05;;;;;;;20.83;14.20;;;;;;;12.03;67.48;103142.97;5093235;28;20062;-91
2022/04/16 09:43:37;;;;;;;20.43;14.10;;;;;;;12.10;67.23;103123.13;5070500;28;20103;-89
2022/04/16 09:46:11;;;;;;;20.53;13.67;;;;;;;11.98;65.31;103149.75;5073022;28;20490;-91
2022/04/16 09:48:37;;;;;;;17.58;12.88;;;;;;;11.86;63.64;103150.16;5071257;28;20041;-90
2022/04/16 09:51:04;;;;;;;20.53;14.10;;;;;;;12.00;67.77;103138.72;5072886;28;20031;-92
2022/04/16 09:53:31;;;;;;;18.20;13.60;;;;;;;12.14;65.06;103126.34;5086572;28;20024;-89
2022/04/16 09:55:59;;;;;;;16.90;12.83;;;;;;;12.25;64.77;103136.06;5071901;28;20036;-91
2022/04/16 09:58:36;;;;;;;16.00;11.50;;;;;;;11.99;61.55;103115.28;5073722;28;20107;-91
2022/04/16 10:01:02;;;;;;;17.60;12.23;;;;;;;12.08;63.05;103146.88;5074256;28;20070;-90
2022/04/16 10:03:29;;;;;;;15.00;11.00;;;;;;;12.29;66.19;103132.84;5072826;28;20028;-90
2022/04/16 10:05:57;;;;;;;15.67;10.77;;;;;;;12.09;61.00;103120.56;5072749;28;20040;-86
2022/04/16 10:08:22;;;;;;;15.00;10.67;;;;;;;12.18;64.05;103122.28;5073311;28;20457;-88
2022/04/16 10:10:54;;;;;;;14.23;10.10;;;;;;;12.24;61.88;103124.34;5073567;28;20163;-88
2022/04/16 10:13:21;;;;;;;15.20;10.67;;;;;;;12.23;61.32;103127.25;5073041;28;20016;-90
2022/04/16 10:16:04;;;;;;;15.60;10.43;;;;;;;12.25;62.26;103117.03;5072791;28;20456;-92
2022/04/16 10:18:34;;;;;;;10.90;8.07;;;;;;;12.49;61.07;103117.06;5074647;28;20090;-89
2022/04/16 10:21:00;;;;;;;11.90;8.67;;;;;;;12.60;59.03;103137.63;5059852;28;20033;-91
2022/04/16 10:23:37;;;;;;;11.00;8.50;;;;;;;12.60;57.31;103143.06;5073062;28;20037;-95
2022/04/16 10:26:21;;;;;;;11.20;8.60;;;;;;;12.11;57.66;103124.81;5081328;28;20035;-87
2022/04/16 10:28:50;;;;;;;12.63;7.70;;;;;;;12.14;58.39;103138.09;5073544;28;20112;-91
2022/04/16 10:31:22;;;;;;;11.50;7.70;;;;;;;12.45;58.14;103139.31;5071366;28;20021;-92
2022/04/16 10:34:05;;;;;;;8.70;6.20;;;;;;;12.78;55.68;103139.34;5071780;28;20020;-90
2022/04/16 10:36:39;;;;;;;10.07;6.70;;;;;;;12.52;54.21;103148.50;5076246;28;20024;-89
2022/04/16 10:39:16;;;;;;;8.23;6.30;;;;;;;12.62;55.89;103107.53;5077824;28;20368;-90
2022/04/16 10:41:59;;;;;;;9.70;6.90;;;;;;;13.12;58.73;103132.84;5074914;28;20071;-88
2022/04/16 10:44:26;;;;;;;9.27;6.77;;;;;;;13.19;56.62;103122.97;5071761;28;20032;-93
2022/04/16 10:46:53;;;;;;;7.10;4.97;;;;;;;13.22;53.74;103136.22;5070918;28;20124;-90
2022/04/16 10:49:20;;;;;;;6.87;5.13;;;;;;;13.40;53.88;103154.25;5080407;28;20131;-89
2022/04/16 10:51:46;;;;;;;8.53;6.23;;;;;;;13.38;52.83;103156.28;5073115;28;20040;-90
2022/04/16 10:54:14;;;;;;;10.20;6.13;;;;;;;13.35;53.30;103135.69;5072798;28;20460;-91
2022/04/16 10:56:44;;;;;;;9.83;7.17;;;;;;;13.16;53.53;103116.00;5072205;28;20418;-89
2022/04/16 10:59:11;;;;;;;10.77;6.73;;;;;;;13.34;53.89;103123.94;5075178;28;20486;-88
2022/04/16 11:01:37;;;;;;;7.23;5.63;;;;;;;13.69;57.39;103131.84;5075944;28;20032;-88
2022/04/16 11:04:13;;;;;;;9.27;6.70;;;;;;;13.50;52.80;103097.72;5112937;27;20102;-86
2022/04/16 11:06:44;;;;;;;6.53;4.97;;;;;;;13.48;51.75;103127.00;5079042;28;20433;-87
2022/04/16 11:09:15;;;;;;;7.80;5.20;;;;;;;13.39;51.42;103119.88;5108197;28;20025;-89
2022/04/16 11:11:41;;;;;;;7.87;5.40;;;;;;;13.49;52.91;103105.03;5065757;28;20056;-93
2022/04/16 11:14:09;;;;;;;9.33;5.97;;;;;;;13.82;54.13;103132.13;5091222;28;20459;-88
2022/04/16 11:16:43;;;;;;;8.63;6.40;;;;;;;13.54;52.45;103118.13;5075225;28;20029;-89
2022/04/16 11:19:16;;;;;;;8.68;6.10;;;;;;;13.87;55.25;103126.16;5073615;28;20033;-92
2022/04/16 11:21:44;;;;;;;8.43;5.90;;;;;;;13.78;51.80;103114.44;5074371;28;20082;-89
2022/04/16 11:24:10;;;;;;;9.37;6.00;;;;;;;13.86;52.23;103116.28;5078973;28;20017;-92
2022/04/16 11:34:55;;;;;;;10.93;6.77;;;;;;;14.16;51.56;103113.72;5057629;28;20094;-90
2022/04/16 11:37:21;;;;;;;9.17;6.60;;;;;;;14.35;50.90;103115.97;5062661;28;20115;-91